Time;durP1;ratioP1;P1;durP2;ratioP2;P2;SDS_P1;SDS_P2;PMS_P1;PMS_P2;Temp;Humidity;BMP_temperature;BMP_pressure;BME280_temperature;BME280_humidity;BME280_pressure;Samples;Min_cycle;Max_cycle;Signal;HPM_P1;HPM_P2
2020/12/31 00:01:56;;;;;;;4.30;3.90;;;8.60;99.90;;;;;;5011879;28;20223;-27
2020/12/31 00:04:26;;;;;;;5.07;4.68;;;8.70;99.90;;;;;;5009130;28;20215;-28
2020/12/31 00:06:58;;;;;;;5.85;4.30;;;8.60;99.90;;;;;;5008431;28;20241;-28
2020/12/31 00:09:28;;;;;;;4.57;4.18;;;8.60;99.90;;;;;;5011808;28;20269;-28
2020/12/31 00:11:58;;;;;;;3.90;3.60;;;8.60;99.90;;;;;;5010919;28;20317;-28
2020/12/31 00:14:29;;;;;;;3.20;3.00;;;8.60;99.90;;;;;;5014542;28;20373;-28
2020/12/31 00:17:00;;;;;;;4.47;4.07;;;8.60;99.90;;;;;;5022783;28;20190;-28
2020/12/31 00:19:30;;;;;;;4.60;4.20;;;8.70;99.90;;;;;;5004262;28;20203;-29
2020/12/31 00:22:01;;;;;;;4.95;4.55;;;8.70;99.90;;;;;;5010624;28;20296;-28
2020/12/31 00:24:31;;;;;;;4.60;4.00;;;8.70;99.90;;;;;;5022621;28;20273;-28
2020/12/31 00:27:01;;;;;;;4.35;3.95;;;8.70;99.90;;;;;;5011299;28;20241;-28
2020/12/31 00:29:31;;;;;;;4.40;4.00;;;8.80;99.90;;;;;;5010946;28;20674;-28
2020/12/31 00:32:01;;;;;;;4.55;4.15;;;8.80;99.90;;;;;;5011331;28;20677;-29
2020/12/31 00:34:31;;;;;;;4.50;4.10;;;8.80;99.90;;;;;;5008882;28;20223;-28
2020/12/31 00:37:03;;;;;;;4.35;3.95;;;8.80;99.90;;;;;;5010934;28;20696;-28
2020/12/31 00:39:33;;;;;;;4.60;4.20;;;8.70;99.90;;;;;;5011545;28;20275;-28
2020/12/31 00:42:03;;;;;;;4.65;4.25;;;8.70;99.90;;;;;;5011099;28;20234;-28
2020/12/31 00:44:33;;;;;;;4.25;3.90;;;8.60;99.90;;;;;;4995255;28;20215;-28
2020/12/31 00:47:03;;;;;;;5.25;3.85;;;8.60;99.90;;;;;;5010647;28;20196;-28
2020/12/31 00:49:33;;;;;;;5.13;4.72;;;8.60;99.90;;;;;;5011640;28;20279;-28
2020/12/31 00:52:04;;;;;;;4.28;3.97;;;8.60;99.90;;;;;;5010939;28;20244;-28
2020/12/31 00:54:34;;;;;;;4.20;3.90;;;8.60;99.90;;;;;;5013633;28;20188;-28
2020/12/31 00:57:04;;;;;;;4.35;3.95;;;8.60;99.90;;;;;;5010911;28;20207;-28
2020/12/31 00:59:34;;;;;;;3.88;3.58;;;8.60;99.90;;;;;;5010913;28;20218;-28
2020/12/31 01:02:05;;;;;;;2.80;2.60;;;8.60;99.90;;;;;;4998270;28;20627;-28
2020/12/31 01:04:35;;;;;;;4.20;3.85;;;8.60;99.90;;;;;;5012579;28;20257;-29
2020/12/31 01:07:06;;;;;;;3.65;3.13;;;8.60;99.90;;;;;;5027680;28;20265;-29
2020/12/31 01:09:36;;;;;;;2.70;2.50;;;8.60;99.90;;;;;;5014551;28;20721;-28
2020/12/31 01:12:06;;;;;;;3.00;2.80;;;8.60;99.90;;;;;;4996152;28;20305;-28
2020/12/31 01:14:36;;;;;;;3.33;3.10;;;8.70;99.90;;;;;;5024022;28;20195;-28
2020/12/31 01:17:07;;;;;;;3.53;3.22;;;8.70;99.90;;;;;;5028303;28;20195;-27
2020/12/31 01:19:37;;;;;;;3.40;3.10;;;8.70;99.90;;;;;;5013436;28;20195;-27
2020/12/31 01:22:08;;;;;;;3.30;2.97;;;8.60;99.90;;;;;;5007975;28;20358;-27
2020/12/31 01:24:38;;;;;;;3.88;3.58;;;8.60;99.90;;;;;;5010574;28;20195;-27
2020/12/31 01:27:09;;;;;;;4.00;3.50;;;8.70;99.90;;;;;;5010482;28;20274;-28
2020/12/31 01:29:39;;;;;;;4.25;3.85;;;8.70;99.90;;;;;;5007690;28;20196;-28
2020/12/31 01:32:09;;;;;;;4.00;3.38;;;8.70;99.90;;;;;;5010504;28;20252;-27
2020/12/31 01:34:39;;;;;;;3.20;2.90;;;8.70;99.90;;;;;;5011023;28;20223;-27
2020/12/31 01:37:10;;;;;;;2.78;2.58;;;8.70;99.90;;;;;;5010939;28;20206;-27
2020/12/31 01:39:40;;;;;;;2.63;2.42;;;8.80;99.90;;;;;;5011463;28;20203;-28
2020/12/31 01:42:10;;;;;;;4.10;2.95;;;8.80;99.90;;;;;;5000514;28;20596;-28
2020/12/31 01:44:40;;;;;;;3.75;3.45;;;8.80;99.90;;;;;;5010080;28;20203;-28
2020/12/31 01:47:12;;;;;;;4.25;2.65;;;8.80;99.90;;;;;;4993695;28;20533;-29
2020/12/31 01:49:43;;;;;;;2.78;2.58;;;8.80;99.90;;;;;;5016441;28;20210;-28
2020/12/31 01:52:16;;;;;;;4.25;3.08;;;8.80;99.90;;;;;;5017156;28;20203;-28
2020/12/31 01:54:48;;;;;;;3.10;2.67;;;8.80;99.90;;;;;;5010121;28;20637;-29
2020/12/31 01:57:18;;;;;;;5.35;3.33;;;8.80;99.90;;;;;;5004236;28;20199;-28
2020/12/31 01:59:48;;;;;;;4.70;2.85;;;8.80;99.90;;;;;;5009010;28;20211;-29
2020/12/31 02:02:18;;;;;;;2.53;2.25;;;8.80;99.90;;;;;;5008314;28;20223;-28
2020/12/31 02:04:50;;;;;;;3.13;2.65;;;8.80;99.90;;;;;;5008506;28;20341;-28
2020/12/31 02:07:23;;;;;;;5.90;2.70;;;8.70;99.90;;;;;;5009109;28;20339;-28
2020/12/31 02:09:53;;;;;;;4.25;2.30;;;8.70;99.90;;;;;;5008593;28;20203;-28
2020/12/31 02:12:23;;;;;;;3.78;2.50;;;8.70;99.90;;;;;;5008194;28;20239;-28
2020/12/31 02:14:55;;;;;;;3.15;2.85;;;8.70;99.90;;;;;;4990716;28;20654;-28
2020/12/31 02:17:25;;;;;;;4.60;3.28;;;8.70;99.90;;;;;;5001687;28;20192;-28
2020/12/31 02:19:56;;;;;;;2.80;2.60;;;8.80;99.90;;;;;;5010714;28;20211;-28
2020/12/31 02:22:28;;;;;;;3.42;3.13;;;8.80;99.90;;;;;;5010035;28;20748;-28
2020/12/31 02:24:58;;;;;;;3.42;2.78;;;8.80;99.90;;;;;;4996881;28;20780;-28
2020/12/31 02:27:28;;;;;;;3.03;2.72;;;8.90;99.90;;;;;;5009747;28;20306;-29
2020/12/31 02:29:58;;;;;;;3.30;2.53;;;8.90;99.90;;;;;;5023488;28;20207;-28
2020/12/31 02:32:28;;;;;;;2.55;2.28;;;8.90;99.90;;;;;;5010471;28;20207;-28
2020/12/31 02:34:58;;;;;;;3.05;2.38;;;8.90;99.90;;;;;;5009990;28;20223;-28
2020/12/31 02:37:29;;;;;;;2.75;1.95;;;8.90;99.90;;;;;;5010134;28;20275;-29
2020/12/31 02:39:59;;;;;;;5.85;2.47;;;8.90;99.90;;;;;;5009833;28;20184;-28
2020/12/31 02:42:29;;;;;;;6.38;2.13;;;8.90;99.90;;;;;;5008208;28;20288;-28
2020/12/31 02:44:59;;;;;;;4.47;2.15;;;8.90;99.90;;;;;;5009612;28;20195;-28
2020/12/31 02:47:36;;;;;;;2.90;1.95;;;8.90;99.90;;;;;;5009449;28;20207;-28
2020/12/31 02:50:06;;;;;;;3.25;2.20;;;8.90;99.90;;;;;;4995526;28;20199;-28
2020/12/31 02:52:37;;;;;;;4.82;3.17;;;8.90;99.90;;;;;;5007463;28;20194;-28
2020/12/31 02:55:07;;;;;;;3.47;3.17;;;8.90;99.90;;;;;;5006737;28;20253;-28
2020/12/31 02:57:37;;;;;;;5.80;3.17;;;8.90;99.90;;;;;;5010423;28;20210;-28
2020/12/31 03:00:07;;;;;;;3.78;3.50;;;8.90;99.90;;;;;;5009997;28;20203;-28
2020/12/31 03:02:37;;;;;;;3.92;3.50;;;8.90;99.90;;;;;;5013047;28;20284;-28
2020/12/31 03:05:08;;;;;;;4.28;2.65;;;9.00;99.90;;;;;;5013626;28;20199;-27
2020/12/31 03:07:39;;;;;;;4.47;3.20;;;9.00;99.90;;;;;;5013831;28;20229;-28
2020/12/31 03:10:09;;;;;;;5.00;3.45;;;8.90;99.90;;;;;;5016875;28;20187;-28
2020/12/31 03:12:39;;;;;;;3.80;3.05;;;8.90;99.90;;;;;;5012332;28;20250;-27
2020/12/31 03:15:11;;;;;;;3.53;3.22;;;8.90;99.90;;;;;;5013455;28;20233;-28
2020/12/31 03:17:42;;;;;;;5.18;3.33;;;8.90;99.90;;;;;;5013441;28;20195;-27
2020/12/31 03:20:12;;;;;;;2.75;2.55;;;8.80;99.90;;;;;;5013304;28;20261;-28
2020/12/31 03:22:43;;;;;;;3.55;2.85;;;8.80;99.90;;;;;;5013745;28;20729;-28
2020/12/31 03:25:13;;;;;;;3.75;2.78;;;8.80;99.90;;;;;;5012933;28;20245;-27
2020/12/31 03:27:43;;;;;;;4.15;2.88;;;8.80;99.90;;;;;;5013055;28;20203;-28
2020/12/31 03:30:13;;;;;;;5.13;2.80;;;8.80;99.90;;;;;;5012466;28;20724;-28
2020/12/31 03:32:43;;;;;;;2.58;2.38;;;8.70;99.90;;;;;;5007435;28;20226;-27
2020/12/31 03:35:13;;;;;;;3.40;2.58;;;8.80;99.90;;;;;;5012957;28;20195;-27
2020/12/31 03:37:44;;;;;;;3.03;2.72;;;8.80;99.90;;;;;;5013442;28;20647;-27
2020/12/31 03:40:15;;;;;;;4.10;3.08;;;8.80;99.90;;;;;;5006084;28;20303;-28
2020/12/31 03:42:45;;;;;;;3.20;2.70;;;8.80;99.90;;;;;;5008886;28;20232;-28
2020/12/31 03:45:15;;;;;;;6.18;5.30;;;8.80;99.90;;;;;;4997428;28;20265;-28
2020/12/31 03:47:45;;;;;;;4.13;3.08;;;8.90;99.90;;;;;;5003985;28;20195;-28
2020/12/31 03:50:15;;;;;;;9.00;6.15;;;8.90;99.90;;;;;;5012439;28;20211;-28
2020/12/31 03:52:46;;;;;;;20.33;13.75;;;8.90;99.90;;;;;;5012664;28;20210;-28
2020/12/31 03:55:16;;;;;;;43.30;30.15;;;8.90;99.90;;;;;;4996852;28;20198;-29
2020/12/31 03:57:46;;;;;;;26.67;22.05;;;8.90;99.90;;;;;;5012114;28;20294;-28
2020/12/31 04:00:16;;;;;;;19.70;15.70;;;8.90;99.90;;;;;;5012351;28;20253;-28
2020/12/31 04:02:46;;;;;;;10.48;8.30;;;9.00;99.90;;;;;;5011736;28;20693;-29
2020/12/31 04:05:17;;;;;;;10.07;5.80;;;9.00;99.90;;;;;;5012081;28;20215;-28
2020/12/31 04:07:48;;;;;;;7.30;5.38;;;9.00;99.90;;;;;;5003456;28;20793;-28
2020/12/31 04:10:18;;;;;;;13.45;10.40;;;9.00;99.90;;;;;;5001582;28;20192;-28
2020/12/31 04:12:48;;;;;;;12.85;8.55;;;9.00;99.90;;;;;;5008279;28;20228;-28
2020/12/31 04:15:18;;;;;;;10.80;7.80;;;9.00;99.90;;;;;;5009227;28;20230;-28
2020/12/31 04:17:48;;;;;;;9.52;7.22;;;9.00;99.90;;;;;;5011696;28;20562;-28
2020/12/31 04:20:18;;;;;;;10.10;8.27;;;9.00;99.90;;;;;;5009877;28;20580;-28
2020/12/31 04:22:49;;;;;;;12.05;8.05;;;9.00;99.90;;;;;;5012042;28;20831;-28
2020/12/31 04:25:19;;;;;;;13.57;12.27;;;9.00;99.90;;;;;;5010693;28;20505;-27
2020/12/31 04:27:49;;;;;;;9.98;8.98;;;9.00;99.90;;;;;;5011617;28;20207;-28
2020/12/31 04:30:19;;;;;;;7.10;5.93;;;9.00;99.90;;;;;;5011407;28;20199;-28
2020/12/31 04:32:49;;;;;;;6.85;6.20;;;9.00;99.90;;;;;;5011120;28;20683;-28
2020/12/31 04:35:19;;;;;;;7.35;5.38;;;9.00;99.90;;;;;;5011518;28;20602;-28
2020/12/31 04:37:50;;;;;;;6.32;5.72;;;9.00;99.90;;;;;;5011523;28;20582;-28
2020/12/31 04:40:20;;;;;;;4.97;4.57;;;9.00;99.90;;;;;;5011655;28;20290;-28
2020/12/31 04:42:52;;;;;;;6.20;5.70;;;9.00;99.90;;;;;;5011397;28;20246;-28
2020/12/31 04:45:23;;;;;;;6.15;5.25;;;9.00;99.90;;;;;;5010205;28;20200;-28
2020/12/31 04:48:07;;;;;;;10.20;9.35;;;9.00;99.90;;;;;;5001664;28;20203;-28
2020/12/31 04:50:41;;;;;;;3.72;3.42;;;9.10;99.90;;;;;;5010928;28;20265;-28
2020/12/31 04:53:12;;;;;;;6.63;5.20;;;9.10;99.90;;;;;;5011052;28;20190;-28
2020/12/31 04:55:44;;;;;;;4.72;4.20;;;9.10;99.90;;;;;;4995002;28;20187;-28
2020/12/31 04:58:15;;;;;;;5.20;4.80;;;9.10;99.90;;;;;;5011466;28;20218;-28
2020/12/31 05:00:46;;;;;;;4.55;4.13;;;9.00;99.90;;;;;;5009265;28;20610;-28
2020/12/31 05:03:16;;;;;;;4.70;4.30;;;9.10;99.90;;;;;;5009556;28;20195;-28
2020/12/31 05:05:47;;;;;;;5.85;3.97;;;9.10;99.90;;;;;;5009820;28;20667;-28
2020/12/31 05:08:19;;;;;;;6.28;4.82;;;9.10;99.90;;;;;;5010491;28;20188;-28
2020/12/31 05:10:54;;;;;;;5.22;3.75;;;9.10;99.90;;;;;;5004880;28;20665;-28
2020/12/31 05:13:24;;;;;;;5.25;4.70;;;9.10;99.90;;;;;;5002341;28;20636;-28
2020/12/31 05:15:54;;;;;;;4.72;4.30;;;9.10;99.90;;;;;;5009349;28;20207;-29
2020/12/31 05:18:26;;;;;;;4.47;3.80;;;9.10;99.90;;;;;;5009871;28;20643;-28
2020/12/31 05:20:57;;;;;;;5.50;3.50;;;9.20;99.90;;;;;;5007481;28;20250;-28
2020/12/31 05:23:29;;;;;;;3.38;2.85;;;9.10;99.90;;;;;;5010785;28;20200;-28
2020/12/31 05:25:59;;;;;;;4.38;3.50;;;9.10;99.90;;;;;;5010248;28;20211;-28
2020/12/31 05:28:30;;;;;;;5.03;3.42;;;9.10;99.90;;;;;;5010712;28;20608;-31
2020/12/31 05:31:01;;;;;;;4.20;3.80;;;9.10;99.90;;;;;;5009967;28;20195;-28
2020/12/31 05:33:33;;;;;;;4.55;3.38;;;9.10;99.90;;;;;;5005854;28;20233;-28
2020/12/31 05:36:18;;;;;;;7.80;3.45;;;9.10;99.90;;;;;;5010529;28;20250;-28
2020/12/31 05:39:02;;;;;;;7.00;4.45;;;9.10;99.90;;;;;;5009667;28;20258;-28
2020/12/31 05:41:33;;;;;;;7.10;4.50;;;9.10;99.90;;;;;;5010275;28;20223;-29
2020/12/31 05:44:05;;;;;;;4.57;3.88;;;9.10;99.90;;;;;;5010923;28;20287;-28
2020/12/31 05:46:36;;;;;;;7.53;4.10;;;9.20;99.90;;;;;;5010191;28;20199;-28
2020/12/31 05:49:08;;;;;;;3.25;2.95;;;9.20;99.90;;;;;;5006013;28;20229;-28
2020/12/31 05:51:40;;;;;;;6.03;4.50;;;9.20;99.90;;;;;;5009717;28;20213;-28
2020/12/31 05:54:12;;;;;;;6.45;3.80;;;9.20;99.90;;;;;;5004007;28;20242;-28
2020/12/31 05:56:43;;;;;;;5.50;3.65;;;9.20;99.90;;;;;;5009097;28;20548;-28
2020/12/31 05:59:21;;;;;;;5.80;3.60;;;9.20;99.90;;;;;;5009296;28;20725;-28
2020/12/31 06:01:57;;;;;;;2.78;2.58;;;9.30;99.90;;;;;;5009584;28;20223;-28
2020/12/31 06:04:46;;;;;;;3.78;3.13;;;9.30;99.90;;;;;;5010112;28;20230;-28
2020/12/31 06:07:29;;;;;;;4.68;3.20;;;9.30;99.90;;;;;;5009864;28;20199;-28
2020/12/31 06:10:05;;;;;;;3.88;2.70;;;9.30;99.90;;;;;;5010529;28;20195;-28
2020/12/31 06:12:48;;;;;;;2.47;2.28;;;9.30;99.90;;;;;;4997645;28;20237;-28
2020/12/31 06:15:21;;;;;;;4.20;3.90;;;9.40;99.90;;;;;;5009563;28;20667;-28
2020/12/31 06:17:52;;;;;;;5.07;3.42;;;9.40;99.90;;;;;;5010072;28;20309;-28
2020/12/31 06:20:23;;;;;;;4.32;3.92;;;9.30;99.90;;;;;;5009494;28;20206;-28
2020/12/31 06:23:13;;;;;;;4.63;3.47;;;9.30;99.90;;;;;;5009795;28;20227;-28
2020/12/31 06:25:46;;;;;;;3.85;3.55;;;9.30;99.90;;;;;;5009552;28;20215;-28
2020/12/31 06:28:18;;;;;;;3.40;2.92;;;9.30;99.90;;;;;;5009953;28;20257;-29
2020/12/31 06:30:49;;;;;;;3.20;2.40;;;9.40;99.90;;;;;;5009120;28;20199;-28
2020/12/31 06:33:26;;;;;;;5.40;3.20;;;9.40;99.90;;;;;;5009010;28;20637;-29
2020/12/31 06:35:58;;;;;;;4.40;2.85;;;9.30;99.90;;;;;;5009708;28;20222;-29
2020/12/31 06:38:33;;;;;;;3.35;2.50;;;9.40;99.90;;;;;;5009672;28;20529;-27
2020/12/31 06:41:06;;;;;;;2.58;2.30;;;9.30;99.90;;;;;;5009306;28;20308;-29
2020/12/31 06:43:38;;;;;;;3.05;2.30;;;9.30;99.90;;;;;;5010053;28;20277;-27
2020/12/31 06:46:19;;;;;;;2.53;2.00;;;9.40;99.90;;;;;;5006919;28;20195;-28
2020/12/31 06:48:53;;;;;;;5.60;2.47;;;9.40;99.90;;;;;;5009538;28;20278;-28
2020/12/31 06:51:30;;;;;;;2.35;2.08;;;9.40;99.90;;;;;;5009419;28;20207;-28
2020/12/31 06:54:00;;;;;;;3.88;2.08;;;9.40;99.90;;;;;;5009085;28;20218;-28
2020/12/31 06:56:47;;;;;;;2.30;1.63;;;9.40;99.90;;;;;;5008788;28;20203;-28
2020/12/31 06:59:31;;;;;;;4.00;2.30;;;9.40;99.90;;;;;;5009040;28;20250;-28
2020/12/31 07:02:02;;;;;;;3.42;2.35;;;9.40;99.90;;;;;;5008431;28;20223;-27
2020/12/31 07:04:36;;;;;;;4.18;2.20;;;9.40;99.90;;;;;;5009313;28;20203;-27
2020/12/31 07:07:28;;;;;;;3.40;1.95;;;9.40;99.90;;;;;;5009275;28;20566;-27
2020/12/31 07:09:59;;;;;;;3.22;1.80;;;9.30;99.90;;;;;;5008851;28;20207;-28
2020/12/31 07:12:35;;;;;;;2.40;1.55;;;9.30;99.90;;;;;;5008870;28;20242;-28
2020/12/31 07:15:06;;;;;;;2.45;1.90;;;9.30;99.90;;;;;;5008976;28;20205;-28
2020/12/31 07:17:37;;;;;;;4.00;2.00;;;9.30;99.90;;;;;;5009382;28;20209;-28
2020/12/31 07:20:09;;;;;;;2.95;2.20;;;9.20;99.90;;;;;;5007438;28;20282;-28
2020/12/31 07:22:40;;;;;;;3.05;1.67;;;9.30;99.90;;;;;;5009724;28;20584;-28
2020/12/31 07:25:12;;;;;;;5.30;2.25;;;9.30;99.90;;;;;;5009113;28;20610;-28
2020/12/31 07:27:44;;;;;;;3.97;2.00;;;9.20;99.90;;;;;;5008844;28;20207;-28
2020/12/31 07:30:17;;;;;;;4.18;1.70;;;9.20;99.90;;;;;;5008764;28;20200;-28
2020/12/31 07:33:09;;;;;;;3.88;2.00;;;9.20;99.90;;;;;;5008819;28;20671;-28
2020/12/31 07:35:40;;;;;;;5.68;2.00;;;9.20;99.90;;;;;;5005543;28;20199;-29
2020/12/31 07:38:11;;;;;;;3.30;2.30;;;9.10;99.90;;;;;;5006170;28;20204;-28
2020/12/31 07:40:44;;;;;;;4.07;2.13;;;9.20;99.90;;;;;;5009135;28;20575;-28
2020/12/31 07:43:16;;;;;;;1.92;1.77;;;9.10;99.90;;;;;;5008606;28;20682;-28
2020/12/31 07:45:47;;;;;;;4.10;1.65;;;9.20;99.90;;;;;;5010816;28;20206;-28
2020/12/31 07:48:18;;;;;;;3.65;2.20;;;9.20;99.90;;;;;;5012524;28;20211;-28
2020/12/31 07:50:53;;;;;;;3.30;1.60;;;9.20;99.90;;;;;;5006397;28;20199;-28
2020/12/31 07:53:23;;;;;;;5.03;2.55;;;9.20;99.90;;;;;;5012604;28;20206;-28
2020/12/31 07:55:55;;;;;;;2.20;1.70;;;9.30;99.90;;;;;;5011865;28;20254;-28
2020/12/31 07:58:27;;;;;;;3.15;1.75;;;9.30;99.90;;;;;;5006985;28;20282;-28
2020/12/31 08:01:01;;;;;;;2.58;1.58;;;9.30;99.90;;;;;;5005505;28;20559;-28
2020/12/31 08:03:31;;;;;;;3.88;2.40;;;9.30;99.90;;;;;;5012091;28;20612;-28
2020/12/31 08:06:02;;;;;;;1.98;1.73;;;9.20;99.90;;;;;;5012614;28;20285;-28
2020/12/31 08:08:34;;;;;;;11.02;2.15;;;9.30;99.90;;;;;;5012189;28;20571;-28
2020/12/31 08:11:08;;;;;;;3.67;1.90;;;9.20;99.90;;;;;;4999356;28;20202;-28
2020/12/31 08:13:40;;;;;;;5.03;2.33;;;9.30;99.90;;;;;;5012283;28;20242;-28
2020/12/31 08:16:16;;;;;;;5.03;2.20;;;9.20;99.90;;;;;;5011906;28;20266;-28
2020/12/31 08:18:46;;;;;;;2.00;1.63;;;9.20;99.90;;;;;;5012066;28;20202;-28
2020/12/31 08:21:17;;;;;;;5.32;2.13;;;9.10;99.90;;;;;;5012146;28;20265;-28
2020/12/31 08:23:50;;;;;;;1.80;1.67;;;9.10;99.90;;;;;;5004639;28;20196;-28
2020/12/31 08:26:21;;;;;;;3.08;1.95;;;9.10;99.90;;;;;;5008184;28;20245;-28
2020/12/31 08:28:52;;;;;;;7.25;2.85;;;9.10;99.90;;;;;;4993130;28;20192;-28
2020/12/31 08:31:26;;;;;;;5.05;2.03;;;9.20;99.90;;;;;;5001179;28;20227;-27
2020/12/31 08:34:01;;;;;;;1.80;1.33;;;9.20;99.90;;;;;;5011320;28;20219;-28
2020/12/31 08:36:31;;;;;;;3.35;1.92;;;9.20;99.90;;;;;;5009724;28;20199;-29
2020/12/31 08:39:08;;;;;;;6.03;1.92;;;9.20;99.90;;;;;;5011802;28;20245;-28
2020/12/31 08:41:40;;;;;;;4.00;2.25;;;9.20;99.90;;;;;;5011590;28;20225;-28
2020/12/31 08:44:14;;;;;;;3.30;2.30;;;9.30;99.90;;;;;;5011496;28;20887;-28
2020/12/31 08:46:49;;;;;;;4.78;1.58;;;9.30;99.90;;;;;;5011882;28;20222;-28
2020/12/31 08:49:25;;;;;;;3.60;1.80;;;9.30;99.90;;;;;;5002548;28;20194;-28
2020/12/31 08:51:55;;;;;;;3.53;2.10;;;9.30;99.90;;;;;;5002635;28;20192;-28
2020/12/31 08:54:25;;;;;;;3.65;1.75;;;9.20;99.90;;;;;;5005491;28;20192;-28
2020/12/31 08:56:55;;;;;;;4.93;1.80;;;9.20;99.90;;;;;;5006525;28;20273;-28
2020/12/31 08:59:33;;;;;;;3.25;2.30;;;9.10;99.90;;;;;;5010836;28;20253;-28
2020/12/31 09:02:03;;;;;;;2.90;1.98;;;9.20;99.90;;;;;;5010064;28;20242;-28
2020/12/31 09:04:35;;;;;;;2.22;1.90;;;9.20;99.90;;;;;;4999033;28;20291;-28
2020/12/31 09:07:12;;;;;;;5.57;2.20;;;9.20;99.90;;;;;;5010989;28;20207;-28
2020/12/31 09:09:42;;;;;;;3.47;2.03;;;9.20;99.90;;;;;;5010953;28;20206;-28
2020/12/31 09:12:12;;;;;;;5.15;2.13;;;9.20;99.90;;;;;;5010902;28;20258;-28
2020/12/31 09:14:58;;;;;;;5.72;2.72;;;9.20;99.90;;;;;;5010356;28;20610;-28
2020/12/31 09:17:30;;;;;;;3.75;2.47;;;9.20;99.90;;;;;;5010443;28;20199;-28
2020/12/31 09:20:00;;;;;;;5.22;2.55;;;9.20;99.90;;;;;;5010963;28;20197;-28
2020/12/31 09:22:30;;;;;;;4.72;2.25;;;9.20;99.90;;;;;;5010697;28;20597;-28
2020/12/31 09:25:10;;;;;;;5.70;2.25;;;9.20;99.90;;;;;;5011221;28;20258;-28
2020/12/31 09:27:41;;;;;;;6.15;2.20;;;9.20;99.90;;;;;;5006765;28;20281;-28
2020/12/31 09:30:13;;;;;;;4.53;2.53;;;9.30;99.90;;;;;;5006224;28;20225;-27
2020/12/31 09:32:47;;;;;;;3.97;2.95;;;9.30;99.90;;;;;;5005357;28;20226;-28
2020/12/31 09:35:17;;;;;;;3.42;2.55;;;9.30;99.90;;;;;;5010589;28;20686;-28
2020/12/31 09:37:52;;;;;;;4.30;2.53;;;9.30;99.90;;;;;;5010615;28;20636;-28
2020/12/31 09:40:22;;;;;;;4.72;2.25;;;9.30;99.90;;;;;;5010540;28;20467;-28
2020/12/31 09:42:53;;;;;;;3.13;2.80;;;9.30;99.90;;;;;;5000545;28;20284;-28
2020/12/31 09:45:24;;;;;;;2.50;2.30;;;9.30;99.90;;;;;;5010317;28;20207;-28
2020/12/31 09:47:54;;;;;;;5.07;3.33;;;9.40;99.90;;;;;;5010548;28;20200;-28
2020/12/31 09:50:24;;;;;;;4.05;2.67;;;9.30;99.90;;;;;;5010397;28;20258;-28
2020/12/31 09:52:54;;;;;;;3.83;2.30;;;9.40;99.90;;;;;;5010406;28;20207;-28
2020/12/31 09:55:44;;;;;;;5.47;2.83;;;9.40;99.90;;;;;;5009886;28;20200;-28
2020/12/31 09:58:14;;;;;;;3.65;2.92;;;9.40;99.90;;;;;;5010314;28;20203;-29
2020/12/31 10:00:45;;;;;;;5.00;2.90;;;9.30;99.90;;;;;;5009555;28;20226;-28
2020/12/31 10:03:15;;;;;;;3.88;2.60;;;9.30;99.90;;;;;;5010161;28;20214;-29
2020/12/31 10:05:46;;;;;;;3.50;2.88;;;9.40;99.90;;;;;;5010368;28;20221;-29
2020/12/31 10:08:16;;;;;;;3.00;2.47;;;9.40;99.90;;;;;;5009103;28;20266;-29
2020/12/31 10:10:47;;;;;;;2.45;2.25;;;9.40;99.90;;;;;;5010056;28;20207;-29
2020/12/31 10:13:17;;;;;;;5.70;1.75;;;9.40;99.90;;;;;;5009929;28;20866;-29
2020/12/31 10:15:48;;;;;;;3.25;2.22;;;9.30;99.90;;;;;;5010006;28;20691;-28
2020/12/31 10:18:18;;;;;;;5.30;2.97;;;9.30;99.90;;;;;;5003683;28;20674;-28
2020/12/31 10:20:48;;;;;;;4.65;1.90;;;9.30;99.90;;;;;;5009912;28;20199;-28
2020/12/31 10:23:18;;;;;;;3.88;2.20;;;9.30;99.90;;;;;;5009891;28;20300;-28
2020/12/31 10:25:49;;;;;;;4.25;2.08;;;9.30;99.90;;;;;;5009601;28;20222;-28
2020/12/31 10:28:20;;;;;;;4.68;3.50;;;9.20;99.90;;;;;;5009589;28;20191;-29
2020/12/31 10:30:52;;;;;;;2.55;1.95;;;9.20;99.90;;;;;;5009253;28;20257;-28
2020/12/31 10:33:22;;;;;;;6.93;2.30;;;9.20;99.90;;;;;;5009537;28;20583;-28
2020/12/31 10:35:52;;;;;;;5.80;2.80;;;9.20;99.90;;;;;;5005872;28;20202;-28
2020/12/31 10:38:22;;;;;;;5.72;1.90;;;9.30;99.90;;;;;;4996189;28;20200;-28
2020/12/31 10:40:52;;;;;;;3.20;2.47;;;9.30;99.90;;;;;;5007210;28;20573;-28
2020/12/31 10:43:22;;;;;;;3.03;2.50;;;9.30;99.90;;;;;;5009365;28;20313;-28
2020/12/31 10:45:53;;;;;;;5.40;2.63;;;9.30;99.90;;;;;;5009315;28;20269;-28
2020/12/31 10:48:24;;;;;;;6.82;2.80;;;9.40;99.90;;;;;;5009631;28;20262;-28
2020/12/31 10:50:58;;;;;;;7.22;3.00;;;9.40;99.90;;;;;;5008128;28;20572;-28
2020/12/31 10:53:28;;;;;;;8.63;2.75;;;9.40;99.90;;;;;;5009745;28;20217;-28
2020/12/31 10:55:58;;;;;;;2.60;2.40;;;9.40;99.90;;;;;;5008784;28;20264;-28
2020/12/31 10:58:28;;;;;;;2.75;2.55;;;9.30;99.90;;;;;;4999069;28;20668;-28
2020/12/31 11:00:59;;;;;;;2.60;2.10;;;9.30;99.90;;;;;;5000229;28;20211;-28
2020/12/31 11:03:29;;;;;;;3.13;2.60;;;9.20;99.90;;;;;;5009335;28;20223;-27
2020/12/31 11:05:59;;;;;;;2.40;2.20;;;9.30;99.90;;;;;;5009011;28;20195;-27
2020/12/31 11:08:29;;;;;;;7.35;2.80;;;9.20;99.90;;;;;;5005553;28;20233;-27
2020/12/31 11:10:59;;;;;;;4.90;2.55;;;9.20;99.90;;;;;;5007269;28;20669;-28
2020/12/31 11:13:29;;;;;;;2.55;2.17;;;9.20;99.90;;;;;;5009175;28;20219;-28
2020/12/31 11:16:01;;;;;;;2.50;1.80;;;9.20;99.90;;;;;;5009399;28;20195;-28
2020/12/31 11:18:31;;;;;;;3.53;1.70;;;9.10;99.90;;;;;;5008620;28;20686;-28
2020/12/31 11:21:01;;;;;;;1.73;1.60;;;9.10;99.90;;;;;;5011231;28;20199;-28
2020/12/31 11:23:31;;;;;;;2.13;1.83;;;9.20;99.90;;;;;;5012871;28;20223;-28
2020/12/31 11:26:01;;;;;;;2.33;1.98;;;9.20;99.90;;;;;;5003526;28;20278;-28
2020/12/31 11:28:31;;;;;;;4.43;2.72;;;9.20;99.90;;;;;;5009584;28;20203;-28
2020/12/31 11:31:02;;;;;;;3.00;2.55;;;9.20;99.90;;;;;;5003514;28;20216;-27
2020/12/31 11:33:32;;;;;;;4.90;2.55;;;9.20;99.90;;;;;;5006862;28;20223;-27
2020/12/31 11:36:04;;;;;;;6.00;2.50;;;9.20;99.90;;;;;;5012955;28;20215;-27
2020/12/31 11:38:34;;;;;;;4.38;2.38;;;9.20;99.90;;;;;;5013060;28;20260;-28
2020/12/31 11:41:06;;;;;;;6.20;2.60;;;9.20;99.90;;;;;;5009311;28;20200;-29
2020/12/31 11:43:36;;;;;;;2.92;2.13;;;9.20;99.90;;;;;;5002287;28;20238;-28
2020/12/31 11:46:08;;;;;;;2.10;1.90;;;9.20;99.90;;;;;;5012165;28;20199;-28
2020/12/31 11:48:38;;;;;;;3.00;1.95;;;9.30;99.90;;;;;;5012886;28;20204;-28
2020/12/31 11:51:11;;;;;;;7.35;2.67;;;9.30;99.90;;;;;;5007399;28;20579;-27
2020/12/31 11:53:41;;;;;;;4.25;2.30;;;9.30;99.90;;;;;;5012214;28;20207;-28
2020/12/31 11:56:11;;;;;;;2.95;2.20;;;9.30;99.90;;;;;;5006241;28;20270;-28
2020/12/31 11:58:41;;;;;;;3.70;2.30;;;9.20;99.90;;;;;;4996705;28;20250;-27
2020/12/31 12:01:15;;;;;;;3.10;2.00;;;9.10;99.90;;;;;;4996282;28;20655;-28
2020/12/31 12:03:46;;;;;;;5.32;2.92;;;9.20;99.90;;;;;;5012587;28;20222;-28
2020/12/31 12:06:17;;;;;;;1.60;1.50;;;9.10;99.90;;;;;;5012076;28;20933;-27
2020/12/31 12:08:47;;;;;;;4.72;2.08;;;9.10;99.90;;;;;;5008354;28;20594;-28
2020/12/31 12:11:17;;;;;;;2.00;1.80;;;9.10;99.90;;;;;;5010443;28;20227;-28
2020/12/31 12:13:47;;;;;;;2.72;2.13;;;9.10;99.90;;;;;;4999081;28;20563;-28
2020/12/31 12:16:23;;;;;;;5.57;2.08;;;9.10;99.90;;;;;;5011204;28;20187;-27
2020/12/31 12:18:53;;;;;;;2.35;1.65;;;9.10;99.90;;;;;;5002232;28;20234;-27
2020/12/31 12:21:23;;;;;;;2.80;1.85;;;9.10;99.90;;;;;;5011235;28;20211;-28
2020/12/31 12:23:53;;;;;;;2.75;1.40;;;9.10;99.90;;;;;;5012016;28;20712;-28
2020/12/31 12:26:23;;;;;;;5.50;2.45;;;9.10;99.90;;;;;;5011299;28;20199;-29
2020/12/31 12:28:53;;;;;;;4.63;1.80;;;9.10;99.90;;;;;;5011917;28;20604;-29
2020/12/31 12:31:33;;;;;;;6.68;1.65;;;9.10;99.90;;;;;;5010898;28;20204;-29
2020/12/31 12:34:03;;;;;;;3.35;1.70;;;9.10;99.90;;;;;;5008174;28;20708;-29
2020/12/31 12:36:34;;;;;;;2.58;1.50;;;9.10;99.90;;;;;;5011827;28;20211;-29
2020/12/31 12:39:05;;;;;;;4.20;1.80;;;9.10;99.90;;;;;;5012070;28;20213;-29
2020/12/31 12:41:35;;;;;;;5.70;2.00;;;9.10;99.90;;;;;;5011609;28;20639;-28
2020/12/31 12:44:06;;;;;;;3.10;2.03;;;9.10;99.90;;;;;;5011257;28;20531;-28
2020/12/31 12:46:37;;;;;;;2.40;1.55;;;9.10;99.90;;;;;;5008335;28;20196;-28
2020/12/31 12:49:07;;;;;;;4.00;1.63;;;9.10;99.90;;;;;;5011873;28;20194;-28
2020/12/31 12:51:37;;;;;;;4.30;1.70;;;9.00;99.90;;;;;;5011857;28;20253;-28
2020/12/31 12:54:07;;;;;;;3.38;1.80;;;9.00;99.90;;;;;;5010645;28;20191;-28
2020/12/31 12:56:37;;;;;;;4.75;2.03;;;9.00;99.90;;;;;;5009503;28;20639;-28
2020/12/31 12:59:08;;;;;;;3.63;1.67;;;9.00;99.90;;;;;;5010536;28;20207;-27
2020/12/31 13:01:42;;;;;;;4.43;1.90;;;9.10;99.90;;;;;;5011706;28;20555;-29
2020/12/31 13:04:12;;;;;;;2.35;1.67;;;9.10;99.90;;;;;;5011164;28;20215;-28
2020/12/31 13:06:42;;;;;;;3.85;2.00;;;9.10;99.90;;;;;;5011203;28;20196;-29
2020/12/31 13:09:12;;;;;;;2.92;1.40;;;9.10;99.90;;;;;;5010982;28;20230;-29
2020/12/31 13:11:42;;;;;;;3.92;2.08;;;9.10;99.90;;;;;;5010718;28;20231;-29
2020/12/31 13:14:12;;;;;;;6.88;2.53;;;9.10;99.90;;;;;;5010562;28;20203;-28
2020/12/31 13:16:43;;;;;;;4.30;2.25;;;9.10;99.90;;;;;;5003622;28;20206;-28
2020/12/31 13:19:13;;;;;;;5.13;1.60;;;9.10;99.90;;;;;;5011143;28;20618;-28